Gustavus, AK

4:20 PM AKST on December 05, 2019 (GMT -0900)
Gustavus | | Change Station

Elev 33 ft 58.42 °N, 135.71 °W | Updated 6 minutes ago

Rain
Rain
34 °F
Feels Like 25 °F
N
13
Wind Variable Wind from SE

Today
High -- | Low -- °F
--% Chance of Precip.
Yesterday
High -- | Low -- °F
Precip. -- in
Pressure 29.86 in
Visibility 4.0 miles
Clouds Mostly Cloudy 1000 ft
Mostly Cloudy 1400 ft
Overcast 12000 ft
Windchill 25 °F
Dew Point 32 °F
Humidity 93%
Rainfall 0.18 in
Snow Depth Not available.
8:32 AM 3:14 PM
Waxing Gibbous, 66% visible
SPECI PAGS 060114Z AUTO 14011KT 4SM -SN BR BKN010 BKN014 OVC120 01/00 A2986 RMK AO2 UPE0059SNB0059 P0003 FZRANO
Pressure 29.86 in
Visibility 4.0 miles
Clouds Mostly Cloudy 1000 ft
Mostly Cloudy 1400 ft
Overcast 12000 ft
Windchill 25 °F
Dew Point 32 °F
Humidity 93%
Rainfall 0.18 in
Snow Depth Not available.
8:32 AM 3:14 PM
Waxing Gibbous, 66% visible
SPECI PAGS 060114Z AUTO 14011KT 4SM -SN BR BKN010 BKN014 OVC120 01/00 A2986 RMK AO2 UPE0059SNB0059 P0003 FZRANO

Get Severe Weather Alerts

Thanks for signing up!

Be on the lookout for a verification email in your inbox.

You'll start receiving the daily forecast at 6 AM.

×

10-Day Weather Forecast

Almanac

Astronomy

Dec. 05, 2019 Rise Set
Actual Time
Civil Twilight
Nautical Twilight
Astronomical Twilight
Moon
Length of Visible Light
Length of Day
Tomorrow will be .
, % of the Moon is Illuminated

Today's Extremes

State Highs State Lows

Community

WunderPhotos

Category 6

Welcome to Category 6. This is the collective home for Weather Underground's featured writeups by Dr. Jeff Masters (right), Bob Henson (left), Chris Burt, and other regular contributors.

Nearby

Air Quality

  Air Quality AQ Index Pollutant
Not available.

Snow Depth

Station Depth Elevation

Earthquake Activity

City Distance Mag. Time & Date
Minimum magnitude displayed is 2.5.

Coastal Water Temperatures

Place Temperature

Stations

Nearby Weather Stations

Station Location Temp. Windchill Dew Point Humidity Wind Precip. Elev Updated Type
                   

Watches & Warnings

There are currently no watches in effect.